Baton Rouge Metropolitan Airport Baton Rouge US
ICAO: KBTR
IATA: BTR
Category: Large
Scheduled Services: Yes

Elevation: 70 ft
TransAlt. 18000 ft.

Airport Communications:
APP/DEP:120.3
ATIS:125.2
CLNC DEL:119.4
CTAF:118.45
GND:121.9
DE RIDDER RDO:122.2
TWR:118.45
UNICOM:122.95

KBTR Zoom In..

Runways:

(A) RW 04L length 7500 ft width 150 ft
---- / hdg 40

(B) RW 04R length 3799 ft width 75 ft
---- / hdg 40

(C) RW 13 length 7004 ft width 150 ft
ILS 110.30 / hdg 130

(D) RW 22L length 3799 ft width 75 ft
---- / hdg 220

(E) RW 22R length 7500 ft width 150 ft
ILS 108.70 / hdg 220

(F) RW 31 length 7004 ft width 150 ft
---- / hdg 310

Location; KBTR
Day. 16 / Time. 17.53 Zulu
* Altimeter: 30.04
* Temperature: 33° c. 91.4°f.
* Wind from: 280° Speed 07 kn.
Dewpoint: 24° c.
Visibility: 5 Statute Miles.
Clouds: Scattered 3000 ft.
Clouds: Broken 4500 ft.
Conditions: Haze.

KBTR 161753Z 28007KT 5SM HZ SCT030 BKN045 33/24 A3004 RMK AO2 SLP172 T03330239 10333 20261 58009


Wind From 280°
Speed 07 kn.

 
 
jpsmedia.com for Web Design worldairports.se 2018   terms of use